createdAt,value
2022-10-18T06:59:47.214Z,13.60
2022-10-18T07:02:17.481Z,16.00
2022-10-18T07:14:31.415Z,20.10
2022-10-18T07:17:01.312Z,13.77
2022-10-18T07:19:28.167Z,20.43
2022-10-18T07:21:54.929Z,13.73
2022-10-18T07:24:21.731Z,17.90
2022-10-18T07:26:48.619Z,14.53
2022-10-18T07:29:15.586Z,19.70
2022-10-18T07:31:42.407Z,19.60
2022-10-18T07:34:14.761Z,16.27
2022-10-18T07:36:41.948Z,15.30
2022-10-18T07:39:08.791Z,21.20
2022-10-18T07:41:35.756Z,21.20
2022-10-18T07:44:04.090Z,17.87
2022-10-18T07:46:31.103Z,17.70
2022-10-18T07:49:00.932Z,28.73
2022-10-18T07:51:28.191Z,27.50
2022-10-18T07:53:55.024Z,20.90
2022-10-18T07:56:22.422Z,27.57
2022-10-18T07:58:55.595Z,27.87
2022-10-18T08:01:24.295Z,41.03
2022-10-18T08:03:52.152Z,28.03
2022-10-18T08:06:20.770Z,32.27
2022-10-18T08:08:47.707Z,35.17
2022-10-18T08:11:17.345Z,24.63
2022-10-18T08:13:44.575Z,29.67
2022-10-18T08:16:21.059Z,39.87
2022-10-18T08:18:48.499Z,29.83
2022-10-18T08:21:16.734Z,34.60
2022-10-18T08:23:44.187Z,38.70
2022-10-18T08:26:16.696Z,36.53
2022-10-18T08:28:53.622Z,32.40
2022-10-18T08:31:31.103Z,29.03
2022-10-18T08:33:58.083Z,26.27
2022-10-18T08:36:25.070Z,32.30
2022-10-18T08:38:52.000Z,32.07
2022-10-18T08:41:30.134Z,30.47
2022-10-18T08:44:04.787Z,35.50
2022-10-18T08:46:36.753Z,35.90
2022-10-18T08:49:04.401Z,35.80
2022-10-18T08:51:51.306Z,34.67
2022-10-18T08:54:49.552Z,35.37
2022-10-18T08:57:18.361Z,37.70
2022-10-18T08:59:45.284Z,37.17
2022-10-18T09:02:42.659Z,34.37
2022-10-18T09:05:24.574Z,54.07
2022-10-18T09:08:23.103Z,41.03
2022-10-18T09:11:48.342Z,57.40
2022-10-18T09:14:28.166Z,47.90
2022-10-18T09:16:54.942Z,49.87
2022-10-18T09:19:37.061Z,51.50
2022-10-18T09:22:19.220Z,46.33
2022-10-18T09:25:22.475Z,35.97
2022-10-18T09:28:03.712Z,39.10
2022-10-18T09:31:09.999Z,42.17
2022-10-18T09:33:46.146Z,44.10
2022-10-18T09:36:39.896Z,47.87
2022-10-18T09:39:09.849Z,46.28
2022-10-18T09:41:45.318Z,45.83
2022-10-18T09:44:18.120Z,58.57
2022-10-18T09:46:50.788Z,37.53
2022-10-18T09:49:40.390Z,39.15
2022-10-18T09:52:13.850Z,43.10
2022-10-18T09:57:17.828Z,40.22
2022-10-18T09:59:49.802Z,36.37
2022-10-18T10:02:22.357Z,27.25
2022-10-18T10:04:54.293Z,35.67
2022-10-18T10:07:28.654Z,24.77
2022-10-18T10:10:12.689Z,31.55
2022-10-18T11:24:49.830Z,15.20
2022-10-18T11:27:28.316Z,10.90
2022-10-18T11:30:25.490Z,14.68
2022-10-18T11:33:38.288Z,15.40
2022-10-18T11:39:22.953Z,27.15
2022-10-18T13:12:09.853Z,7.03
2022-10-18T13:15:25.394Z,11.82
2022-10-18T13:41:45.943Z,9.60
2022-10-18T13:44:28.958Z,6.15
2022-10-18T17:31:22.709Z,5.43
2022-10-18T17:33:50.353Z,6.90
2022-10-18T17:36:17.314Z,10.10
2022-10-18T20:11:14.994Z,5.03
2022-10-18T20:13:42.289Z,4.33
2022-10-18T20:16:10.739Z,17.10
2022-10-18T20:18:38.247Z,12.23
2022-10-18T20:21:06.845Z,5.30
2022-10-18T20:31:05.887Z,8.77
2022-10-18T20:33:33.427Z,6.87
2022-10-18T20:36:10.831Z,6.17
2022-10-18T20:38:39.244Z,10.70
2022-10-18T20:46:01.763Z,14.60
2022-10-18T20:48:29.915Z,3.93
2022-10-18T20:50:57.264Z,5.40
2022-10-18T20:53:24.503Z,9.40
2022-10-18T20:55:51.803Z,5.30
2022-10-18T20:58:19.180Z,5.00
2022-10-18T21:00:46.490Z,3.27
2022-10-18T21:03:13.814Z,6.40
2022-10-18T21:05:41.037Z,6.77
2022-10-18T21:08:08.262Z,5.57
2022-10-18T21:10:38.510Z,8.53
2022-10-18T21:13:05.694Z,18.40
2022-10-18T21:15:33.013Z,12.70
2022-10-18T21:18:00.230Z,8.00
2022-10-18T21:20:30.267Z,4.43
2022-10-18T21:22:57.515Z,7.73
2022-10-18T21:25:24.763Z,8.83
2022-10-18T21:27:52.008Z,5.93
